Ludlow, VT

2:57 PM EDT on August 27, 2016 (GMT -0400)
bixby rd. | | Change Station

Elev 1135 ft 43.39 °N, 72.67 °W | Updated 16 seconds ago

Clear
Clear
81.7 °F
Feels Like 82 °F
N
0.0
Wind Variable Wind from ESE
Gusts 0.0 mph

Today
High -- | Low -- °F
--% Chance of Precip.
Yesterday
High -- | Low -- °F
Precip. -- in
Pressure 30.18 in
Visibility 10.0 miles
Clouds Clear
Heat Index 82 °F
Dew Point 61 °F
Humidity 49%
Rainfall 0.00 in
Snow Depth Not available.
6:09 AM 7:33 PM
Waning Crescent, 22% visible
METAR KVSF 271854Z AUTO VRB03KT 10SM CLR 29/16 A3019 RMK AO2 SLP220 T02890156 TSNO
Pressure 30.18 in
Visibility 10.0 miles
Clouds Clear
Heat Index 82 °F
Dew Point 61 °F
Humidity 49%
Rainfall 0.00 in
Snow Depth Not available.
6:09 AM 7:33 PM
Waning Crescent, 22% visible
METAR KVSF 271854Z AUTO VRB03KT 10SM CLR 29/16 A3019 RMK AO2 SLP220 T02890156 TSNO

10-Day Weather Forecast

Almanac

Astronomy

Aug. 27, 2016 Rise Set
Actual Time
Civil Twilight
Nautical Twilight
Astronomical Twilight
Moon
Length of Visible Light
Length of Day
Tomorrow will be .
, % of the Moon is Illuminated

Today's Extremes

State Highs State Lows

Community

WunderPhotos

Upload Photos

1,935,399 photos uploaded!

WunderBlog® & News

Nearby

Air Quality

  Air Quality AQ Index Pollutant
Not available.

Snow Depth

Station Depth Elevation

Earthquake Activity

City Distance Mag. Time & Date
Minimum magnitude displayed is 2.5.

Coastal Water Temperatures

Place Temperature

Stations

Nearby Weather Stations

Station Location Temp. Windchill Dew Point Humidity Wind Precip. Elev Updated Type
                   

Watches & Warnings

There are currently no watches in effect.